Time;durP1;ratioP1;P1;durP2;ratioP2;P2;SDS_P1;SDS_P2;PMS_P1;PMS_P2;Temp;Humidity;BMP_temperature;BMP_pressure;BME280_temperature;BME280_humidity;BME280_pressure;Samples;Min_cycle;Max_cycle;Signal;HPM_P1;HPM_P2
2023/01/20 00:01:08;;;;;;;11.00;4.50;;;-0.60;99.90;;;;;;5010395;28;20038;-68
2023/01/20 00:03:34;;;;;;;13.40;4.88;;;-0.60;99.90;;;;;;5009280;28;20061;-68
2023/01/20 00:06:00;;;;;;;9.55;4.78;;;-0.60;99.90;;;;;;5007630;28;20045;-68
2023/01/20 00:08:25;;;;;;;10.98;5.13;;;-0.60;99.90;;;;;;5010572;28;20129;-68
2023/01/20 00:10:51;;;;;;;11.32;5.32;;;-0.60;99.90;;;;;;5004490;28;20029;-68
2023/01/20 00:13:16;;;;;;;12.23;4.45;;;-0.60;99.90;;;;;;5009963;28;20045;-67
2023/01/20 00:15:42;;;;;;;12.35;5.55;;;-0.50;99.90;;;;;;5007324;28;20858;-68
2023/01/20 00:18:08;;;;;;;11.55;5.07;;;-0.60;99.90;;;;;;5011147;28;20044;-68
2023/01/20 00:20:33;;;;;;;14.70;5.53;;;-0.40;99.90;;;;;;5006288;28;20045;-68
2023/01/20 00:22:59;;;;;;;12.55;5.15;;;-0.50;99.90;;;;;;5008986;28;20073;-68
2023/01/20 00:25:24;;;;;;;10.40;4.93;;;-0.50;99.90;;;;;;5010837;28;20100;-68
2023/01/20 00:27:54;;;;;;;9.95;4.85;;;-0.60;99.90;;;;;;5010540;28;20137;-68
2023/01/20 00:30:19;;;;;;;8.73;4.50;;;-0.50;99.90;;;;;;5010019;28;20042;-68
2023/01/20 00:32:45;;;;;;;10.40;4.60;;;-0.60;99.90;;;;;;5009540;28;20108;-68
2023/01/20 00:35:11;;;;;;;13.15;4.90;;;-0.60;99.90;;;;;;5008854;28;20080;-68
2023/01/20 00:37:37;;;;;;;8.77;4.43;;;-0.60;99.90;;;;;;5009705;28;20058;-68
2023/01/20 00:40:04;;;;;;;10.52;4.72;;;-0.60;99.90;;;;;;4994175;28;20050;-68
2023/01/20 00:42:29;;;;;;;13.75;6.05;;;-0.70;99.90;;;;;;5010300;28;20495;-68
2023/01/20 00:44:55;;;;;;;18.23;5.95;;;-0.70;99.90;;;;;;5008538;28;20121;-68
2023/01/20 00:47:21;;;;;;;15.85;6.47;;;-0.60;99.90;;;;;;5009681;28;20069;-69
2023/01/20 00:49:47;;;;;;;16.65;6.95;;;-0.70;99.90;;;;;;5009396;28;20042;-68
2023/01/20 00:52:13;;;;;;;23.17;8.30;;;-0.70;99.90;;;;;;5005260;28;20034;-69
2023/01/20 00:54:39;;;;;;;19.73;7.90;;;-0.70;99.90;;;;;;5009547;28;20120;-68
2023/01/20 00:57:04;;;;;;;12.82;7.43;;;-0.70;99.90;;;;;;5009222;28;20117;-68
2023/01/20 00:59:31;;;;;;;18.15;7.78;;;-0.50;99.90;;;;;;5010789;28;20045;-68
2023/01/20 01:01:56;;;;;;;17.05;8.10;;;-0.70;99.90;;;;;;5011291;28;20037;-68
2023/01/20 01:04:22;;;;;;;20.83;8.88;;;-0.70;99.90;;;;;;5012101;28;20042;-68
2023/01/20 01:06:49;;;;;;;21.73;10.20;;;-0.70;99.90;;;;;;5009225;28;20068;-68
2023/01/20 01:09:15;;;;;;;26.10;10.45;;;-0.70;99.90;;;;;;5011242;28;20491;-68
2023/01/20 01:11:40;;;;;;;22.05;11.00;;;-0.70;99.90;;;;;;5004127;28;20042;-68
2023/01/20 01:14:06;;;;;;;29.40;12.13;;;-0.70;99.90;;;;;;5007577;28;20041;-68
2023/01/20 01:16:31;;;;;;;29.15;12.05;;;-0.60;99.90;;;;;;5008373;28;20091;-68
2023/01/20 01:18:57;;;;;;;34.42;13.05;;;-0.60;99.90;;;;;;5008666;28;20096;-69
2023/01/20 01:21:23;;;;;;;34.67;14.70;;;-0.60;99.90;;;;;;5000010;28;20046;-67
2023/01/20 01:23:50;;;;;;;39.05;14.18;;;-0.50;99.90;;;;;;5010121;28;20034;-68
2023/01/20 01:26:16;;;;;;;33.55;14.07;;;-0.50;99.90;;;;;;5008165;28;20049;-67
2023/01/20 01:28:41;;;;;;;34.67;14.05;;;-0.50;99.90;;;;;;5010854;28;20053;-68
2023/01/20 01:31:07;;;;;;;41.80;15.63;;;-0.40;99.90;;;;;;5008965;28;20093;-68
2023/01/20 01:33:34;;;;;;;42.35;17.05;;;-0.40;99.90;;;;;;5010217;28;20041;-67
2023/01/20 01:36:01;;;;;;;41.85;16.65;;;-0.40;99.90;;;;;;5007827;28;20037;-67
2023/01/20 01:38:27;;;;;;;52.13;17.85;;;-0.30;99.90;;;;;;5008300;28;20084;-68
2023/01/20 01:40:54;;;;;;;47.10;16.65;;;-0.30;99.90;;;;;;5010395;28;20070;-67
2023/01/20 01:43:24;;;;;;;47.17;17.55;;;-0.30;99.90;;;;;;5008755;28;20077;-67
2023/01/20 01:45:50;;;;;;;44.88;16.70;;;-0.30;99.90;;;;;;5007396;28;20077;-67
2023/01/20 01:48:20;;;;;;;34.80;15.13;;;-0.30;99.90;;;;;;5008047;28;20440;-67
2023/01/20 01:51:03;;;;;;;41.28;16.50;;;-0.30;99.90;;;;;;5008228;28;20054;-67
2023/01/20 01:53:31;;;;;;;38.53;16.38;;;-0.30;99.90;;;;;;5009858;28;20122;-68
2023/01/20 01:56:00;;;;;;;40.78;16.35;;;-0.30;99.90;;;;;;5005950;28;20045;-69
2023/01/20 01:58:35;;;;;;;39.25;16.02;;;-0.20;99.90;;;;;;5007196;28;20052;-68
2023/01/20 02:01:01;;;;;;;37.58;15.93;;;-0.30;99.90;;;;;;5005853;28;20092;-68
2023/01/20 02:03:37;;;;;;;39.20;14.95;;;-0.30;99.90;;;;;;5011934;28;20104;-67
2023/01/20 02:06:03;;;;;;;33.15;14.52;;;-0.30;99.90;;;;;;5012881;28;20056;-68
2023/01/20 02:08:29;;;;;;;28.52;13.43;;;-0.30;99.90;;;;;;5010100;28;21185;-67
2023/01/20 02:10:55;;;;;;;32.85;13.43;;;-0.30;99.90;;;;;;5010996;28;20030;-68
2023/01/20 02:13:20;;;;;;;29.50;13.02;;;-0.40;99.90;;;;;;5013993;28;20041;-67
2023/01/20 02:16:05;;;;;;;27.95;12.90;;;-0.40;99.90;;;;;;5011696;28;20042;-68
2023/01/20 02:19:12;;;;;;;28.75;12.65;;;-0.50;99.90;;;;;;5011732;28;20332;-67
2023/01/20 02:22:09;;;;;;;23.23;12.05;;;-0.50;99.90;;;;;;5007939;28;20511;-68
2023/01/20 02:25:06;;;;;;;20.90;10.52;;;-0.50;99.90;;;;;;5010203;28;20491;-67
2023/01/20 02:27:44;;;;;;;27.42;12.07;;;-0.60;99.90;;;;;;5011847;28;20049;-68
2023/01/20 02:30:24;;;;;;;23.90;12.07;;;-0.60;99.90;;;;;;5010473;28;20133;-68
2023/01/20 02:33:10;;;;;;;27.60;11.75;;;-0.60;99.90;;;;;;5013507;28;20057;-68
2023/01/20 02:35:57;;;;;;;34.72;12.70;;;-0.60;99.90;;;;;;5012373;28;20093;-67
2023/01/20 02:38:41;;;;;;;33.67;14.10;;;-0.60;99.90;;;;;;5002949;28;20113;-68
2023/01/20 02:41:15;;;;;;;28.05;12.90;;;-0.60;99.90;;;;;;5008937;28;20132;-67
2023/01/20 02:43:56;;;;;;;33.13;14.02;;;-0.60;99.90;;;;;;5010792;28;20041;-67
2023/01/20 02:46:31;;;;;;;38.25;15.05;;;-0.50;99.90;;;;;;5013040;28;20054;-67
2023/01/20 02:49:18;;;;;;;34.03;14.48;;;-0.50;99.90;;;;;;5011615;28;20137;-67
2023/01/20 02:51:55;;;;;;;35.80;14.02;;;-0.50;99.90;;;;;;5012217;28;20085;-67
2023/01/20 02:54:23;;;;;;;29.73;13.95;;;-0.50;99.90;;;;;;5013127;28;20044;-67
2023/01/20 02:56:50;;;;;;;35.50;15.07;;;-0.40;99.90;;;;;;5011108;28;20445;-67
2023/01/20 02:59:20;;;;;;;37.78;15.27;;;-0.40;99.90;;;;;;4990315;28;20078;-67
2023/01/20 03:02:09;;;;;;;35.20;14.93;;;-0.40;99.90;;;;;;5012248;28;20084;-67
2023/01/20 03:04:44;;;;;;;31.17;15.55;;;-0.30;99.90;;;;;;5009632;28;20092;-67
2023/01/20 03:07:11;;;;;;;39.58;16.35;;;-0.30;99.90;;;;;;4992454;28;20546;-67
2023/01/20 03:09:43;;;;;;;36.08;15.55;;;-0.30;99.90;;;;;;5011610;28;20058;-68
2023/01/20 03:12:41;;;;;;;35.70;16.98;;;-0.30;99.90;;;;;;5003632;28;20045;-68
2023/01/20 03:15:07;;;;;;;34.80;15.07;;;-0.30;99.90;;;;;;5010688;28;20100;-68
2023/01/20 03:17:33;;;;;;;31.00;15.18;;;-0.40;99.90;;;;;;5013313;28;20561;-68
2023/01/20 03:20:00;;;;;;;35.28;15.23;;;-0.40;99.90;;;;;;5010885;28;20038;-68
2023/01/20 03:22:28;;;;;;;34.40;16.05;;;-0.40;99.90;;;;;;5010762;28;20081;-68
2023/01/20 03:24:55;;;;;;;30.73;15.88;;;-0.50;99.90;;;;;;5011108;28;20046;-67
2023/01/20 03:27:21;;;;;;;40.60;16.73;;;-0.50;99.90;;;;;;5011488;28;20034;-66
2023/01/20 03:29:46;;;;;;;37.22;17.08;;;-0.50;99.90;;;;;;5008581;28;20040;-67
2023/01/20 03:32:13;;;;;;;35.40;17.30;;;-0.50;99.90;;;;;;5007930;28;20109;-67
2023/01/20 03:34:41;;;;;;;38.85;17.92;;;-0.50;99.90;;;;;;5010789;28;20041;-67
2023/01/20 03:37:09;;;;;;;41.65;18.27;;;-0.40;99.90;;;;;;5012088;28;20092;-67
2023/01/20 03:39:38;;;;;;;39.05;19.50;;;-0.40;99.90;;;;;;5004452;28;20053;-67
2023/01/20 03:42:15;;;;;;;39.22;18.55;;;-0.30;99.90;;;;;;5010355;28;20064;-68
2023/01/20 03:44:55;;;;;;;43.67;20.67;;;-0.30;99.90;;;;;;5009479;28;20491;-67
2023/01/20 03:47:36;;;;;;;47.45;20.70;;;-0.20;99.90;;;;;;5010536;28;20506;-67
2023/01/20 03:50:37;;;;;;;49.22;21.40;;;-0.20;99.90;;;;;;5008795;28;20511;-68
2023/01/20 03:53:15;;;;;;;46.45;21.75;;;-0.10;99.90;;;;;;5009767;28;20046;-68
2023/01/20 03:55:55;;;;;;;51.70;20.90;;;-0.10;99.90;;;;;;5004739;28;20042;-68
2023/01/20 03:58:25;;;;;;;;;;;-0.10;99.90;;;;;;5012270;28;20042;-68
2023/01/20 04:00:52;;;;;;;50.55;20.63;;;-0.10;99.90;;;;;;5005137;28;20264;-67
2023/01/20 04:03:23;;;;;;;52.35;21.42;;;0.00;99.90;;;;;;5010239;28;20422;-68
2023/01/20 04:05:50;;;;;;;59.95;23.20;;;0.00;99.90;;;;;;5008529;28;20045;-68
2023/01/20 04:08:17;;;;;;;57.08;22.33;;;0.00;99.90;;;;;;5012781;28;20096;-68
2023/01/20 04:10:47;;;;;;;51.38;23.13;;;0.00;99.90;;;;;;5010847;28;20125;-68
2023/01/20 04:13:13;;;;;;;56.50;21.48;;;0.00;99.90;;;;;;5009619;28;20049;-67
2023/01/20 04:15:43;;;;;;;51.92;22.08;;;0.40;99.90;;;;;;5010259;28;20050;-67
2023/01/20 04:18:13;;;;;;;55.00;22.08;;;0.10;99.90;;;;;;5010274;28;20038;-68
2023/01/20 04:20:40;;;;;;;48.58;21.00;;;0.10;99.90;;;;;;5011307;28;20041;-68
2023/01/20 04:23:12;;;;;;;49.42;21.52;;;0.10;99.90;;;;;;5007693;28;20148;-67
2023/01/20 04:25:38;;;;;;;46.92;20.55;;;0.10;99.90;;;;;;5008392;28;20050;-67
2023/01/20 04:28:03;;;;;;;50.42;20.10;;;0.10;99.90;;;;;;5011515;28;20454;-68
2023/01/20 04:30:29;;;;;;;49.35;20.63;;;0.10;99.90;;;;;;5009308;28;20034;-68
2023/01/20 04:32:54;;;;;;;51.53;20.88;;;0.10;99.90;;;;;;5010840;28;20050;-67
2023/01/20 04:35:20;;;;;;;53.25;20.88;;;0.10;99.90;;;;;;5010340;28;20050;-68
2023/01/20 04:37:45;;;;;;;47.92;19.88;;;0.10;99.90;;;;;;5009099;28;20049;-67
2023/01/20 04:40:11;;;;;;;50.97;20.75;;;0.10;99.90;;;;;;5009853;28;20038;-68
2023/01/20 04:42:37;;;;;;;45.38;19.73;;;0.10;99.90;;;;;;5011182;28;20053;-67
2023/01/20 04:45:03;;;;;;;42.25;18.63;;;0.10;99.90;;;;;;5010387;28;20041;-67
2023/01/20 04:47:30;;;;;;;44.85;17.77;;;0.10;99.90;;;;;;5011460;28;20050;-68
2023/01/20 04:49:56;;;;;;;47.85;20.17;;;0.10;99.90;;;;;;5009684;28;20057;-68
2023/01/20 04:52:21;;;;;;;52.28;19.48;;;0.10;99.90;;;;;;5009269;28;20034;-68
2023/01/20 04:54:47;;;;;;;45.40;19.08;;;0.10;99.90;;;;;;5010929;28;20117;-67
2023/01/20 04:57:13;;;;;;;45.10;18.45;;;0.10;99.90;;;;;;5012286;28;20112;-67
2023/01/20 04:59:38;;;;;;;44.70;18.73;;;0.10;99.90;;;;;;5008138;28;20053;-68
2023/01/20 05:02:04;;;;;;;48.65;17.80;;;0.10;99.90;;;;;;5009918;28;20045;-68
2023/01/20 05:04:29;;;;;;;44.17;18.67;;;0.10;99.90;;;;;;5011118;28;20045;-68
2023/01/20 05:06:55;;;;;;;51.15;19.33;;;0.10;99.90;;;;;;5007680;28;20097;-68
2023/01/20 05:09:21;;;;;;;42.58;18.83;;;0.10;99.90;;;;;;5009337;28;20046;-68
2023/01/20 05:11:46;;;;;;;42.70;17.48;;;0.10;99.90;;;;;;5001551;28;20053;-68
2023/01/20 05:14:12;;;;;;;44.35;18.38;;;0.10;99.90;;;;;;5009646;28;20157;-68
2023/01/20 05:16:38;;;;;;;41.63;17.27;;;0.10;99.90;;;;;;5008783;28;20084;-68
2023/01/20 05:19:04;;;;;;;43.47;17.58;;;0.10;99.90;;;;;;5008923;28;20037;-68
2023/01/20 05:21:29;;;;;;;45.72;17.95;;;0.10;99.90;;;;;;5008938;28;20089;-68
2023/01/20 05:23:56;;;;;;;41.22;16.80;;;0.10;99.90;;;;;;5006770;28;20077;-68
2023/01/20 05:26:23;;;;;;;37.45;16.33;;;0.10;99.90;;;;;;5006806;28;20042;-68
2023/01/20 05:28:48;;;;;;;40.92;16.52;;;0.10;99.90;;;;;;5012034;28;20046;-68
2023/01/20 05:31:14;;;;;;;41.13;16.55;;;0.00;99.90;;;;;;5012192;28;20037;-68
2023/01/20 05:33:40;;;;;;;42.30;16.23;;;0.00;99.90;;;;;;5008910;28;20446;-68
2023/01/20 05:36:07;;;;;;;42.22;16.55;;;0.00;99.90;;;;;;5010160;28;20038;-68
2023/01/20 05:38:33;;;;;;;36.25;15.93;;;0.00;99.90;;;;;;5010800;28;20110;-68
2023/01/20 05:41:04;;;;;;;38.50;16.25;;;0.00;99.90;;;;;;5010653;28;20132;-69
2023/01/20 05:43:29;;;;;;;38.13;16.58;;;0.00;99.90;;;;;;5011742;28;20053;-68
2023/01/20 05:45:55;;;;;;;38.83;15.60;;;0.00;99.90;;;;;;5007925;28;20922;-68
2023/01/20 05:48:21;;;;;;;41.22;17.10;;;-0.10;99.90;;;;;;5010373;28;20372;-68
2023/01/20 05:50:47;;;;;;;38.35;16.92;;;-0.10;99.90;;;;;;5007801;28;20117;-68
2023/01/20 05:53:13;;;;;;;42.72;16.65;;;-0.10;99.90;;;;;;5007501;28;20038;-68
2023/01/20 05:55:39;;;;;;;34.28;15.82;;;-0.10;99.90;;;;;;5009605;28;20516;-68
2023/01/20 05:58:05;;;;;;;38.67;16.67;;;-0.10;99.90;;;;;;5009333;28;20120;-68
2023/01/20 06:00:31;;;;;;;38.70;16.15;;;-0.10;99.90;;;;;;5006445;28;20404;-67
2023/01/20 06:02:57;;;;;;;39.45;17.10;;;-0.10;99.90;;;;;;5004102;28;20035;-67
2023/01/20 06:05:23;;;;;;;37.97;16.67;;;-0.10;99.90;;;;;;5007911;28;20471;-68
2023/01/20 06:07:48;;;;;;;40.50;17.02;;;-0.10;99.90;;;;;;5007000;28;20093;-68
2023/01/20 06:10:15;;;;;;;40.35;17.67;;;-0.10;99.90;;;;;;4999555;28;20080;-67
2023/01/20 06:12:41;;;;;;;40.33;17.33;;;-0.10;99.90;;;;;;4997278;28;20042;-67
2023/01/20 06:15:07;;;;;;;43.45;18.25;;;-0.10;99.90;;;;;;5005183;28;20434;-67
2023/01/20 06:17:33;;;;;;;41.17;17.98;;;-0.10;99.90;;;;;;5005691;28;20037;-68
2023/01/20 06:19:59;;;;;;;43.35;17.88;;;-0.10;99.90;;;;;;5007185;28;20037;-68
2023/01/20 06:22:25;;;;;;;44.35;18.25;;;-0.10;99.90;;;;;;5006521;28;20038;-67
2023/01/20 06:24:51;;;;;;;47.17;17.98;;;-0.10;99.90;;;;;;5009595;28;20484;-68
2023/01/20 06:27:17;;;;;;;47.03;19.15;;;0.00;99.90;;;;;;5006963;28;20145;-70
2023/01/20 06:29:43;;;;;;;43.05;18.33;;;0.00;99.90;;;;;;5006658;28;20329;-67
2023/01/20 06:32:09;;;;;;;44.75;19.17;;;0.00;99.90;;;;;;5003445;28;20046;-68
2023/01/20 06:34:35;;;;;;;53.08;19.77;;;0.00;99.90;;;;;;5005484;28;20069;-67
2023/01/20 06:37:01;;;;;;;46.45;19.27;;;0.00;99.90;;;;;;5006585;28;20054;-67
2023/01/20 06:39:27;;;;;;;44.22;18.25;;;0.00;99.90;;;;;;5007867;28;20049;-67
2023/01/20 06:41:56;;;;;;;47.88;19.90;;;0.00;99.90;;;;;;5002961;28;20514;-67
2023/01/20 06:44:21;;;;;;;43.42;18.50;;;0.00;99.90;;;;;;5005566;28;20406;-67
2023/01/20 06:46:47;;;;;;;45.70;19.35;;;0.00;99.90;;;;;;5004646;28;20034;-68
2023/01/20 06:49:13;;;;;;;50.75;18.58;;;0.00;99.90;;;;;;5002182;28;20041;-68
2023/01/20 06:51:38;;;;;;;49.08;18.85;;;0.10;99.90;;;;;;5007803;28;20049;-68
2023/01/20 06:54:04;;;;;;;46.65;19.55;;;0.10;99.90;;;;;;5014311;28;20054;-68
2023/01/20 06:56:30;;;;;;;45.08;17.95;;;0.00;99.90;;;;;;5016978;28;20390;-68
2023/01/20 06:58:55;;;;;;;39.47;18.23;;;0.10;99.90;;;;;;5013503;28;20439;-67
2023/01/20 07:01:23;;;;;;;46.80;20.45;;;0.10;99.90;;;;;;5013326;28;20212;-67
2023/01/20 07:03:49;;;;;;;42.00;18.58;;;0.10;99.90;;;;;;5005401;28;20530;-67
2023/01/20 07:06:30;;;;;;;44.50;19.13;;;0.10;99.90;;;;;;5011445;28;20037;-68
2023/01/20 07:08:57;;;;;;;40.42;19.83;;;0.10;99.90;;;;;;5003313;28;20133;-67
2023/01/20 07:11:22;;;;;;;40.72;18.52;;;0.10;99.90;;;;;;4996003;28;20070;-67
2023/01/20 07:13:48;;;;;;;41.20;18.50;;;0.10;99.90;;;;;;5012441;28;20458;-67
2023/01/20 07:16:14;;;;;;;43.17;19.52;;;0.10;99.90;;;;;;5011146;28;20042;-67
2023/01/20 07:18:40;;;;;;;44.80;19.35;;;0.10;99.90;;;;;;5011875;28;20034;-67
2023/01/20 07:21:06;;;;;;;40.58;19.08;;;0.10;99.90;;;;;;5011335;28;20120;-67
2023/01/20 07:23:32;;;;;;;45.25;19.52;;;0.10;99.90;;;;;;5012035;28;20038;-67
2023/01/20 07:26:06;;;;;;;45.13;19.73;;;0.10;99.90;;;;;;5012051;28;20049;-67
2023/01/20 07:28:32;;;;;;;44.75;19.52;;;0.10;99.90;;;;;;5009196;28;20156;-67
2023/01/20 07:31:10;;;;;;;46.80;19.42;;;0.20;99.90;;;;;;5010824;28;20522;-67
2023/01/20 07:33:36;;;;;;;39.50;20.00;;;0.10;99.90;;;;;;5006444;28;20372;-67
2023/01/20 07:36:03;;;;;;;46.40;21.00;;;0.10;99.90;;;;;;5012953;28;20403;-67
2023/01/20 07:38:29;;;;;;;46.35;21.05;;;0.10;99.90;;;;;;5013344;28;20496;-68
2023/01/20 07:41:04;;;;;;;44.35;19.70;;;0.10;99.90;;;;;;5013487;28;20045;-67
2023/01/20 07:43:30;;;;;;;42.42;19.38;;;0.10;99.90;;;;;;5007679;28;20042;-67
2023/01/20 07:46:00;;;;;;;48.75;21.05;;;0.10;99.90;;;;;;5013079;28;20458;-67
2023/01/20 07:48:28;;;;;;;46.53;20.83;;;0.10;99.90;;;;;;5002844;28;20041;-67
2023/01/20 07:51:02;;;;;;;43.23;19.87;;;0.20;99.90;;;;;;5013100;28;20045;-67
2023/01/20 07:53:39;;;;;;;49.42;21.17;;;0.20;99.90;;;;;;5009927;28;20308;-67
2023/01/20 07:56:10;;;;;;;46.90;20.92;;;0.20;99.90;;;;;;5013180;28;20491;-67
2023/01/20 07:58:36;;;;;;;46.58;20.20;;;1.00;99.90;;;;;;5012320;28;20057;-67
2023/01/20 08:01:10;;;;;;;44.50;21.38;;;0.20;99.90;;;;;;5012821;28;20053;-67
2023/01/20 08:03:36;;;;;;;50.92;21.23;;;0.20;99.90;;;;;;5011438;28;20064;-67
2023/01/20 08:06:07;;;;;;;48.85;21.52;;;0.20;99.90;;;;;;5013423;28;20046;-67
2023/01/20 08:08:33;;;;;;;47.67;21.17;;;0.20;99.90;;;;;;5007055;28;20058;-67
2023/01/20 08:11:00;;;;;;;51.55;22.52;;;0.20;99.90;;;;;;5010869;28;20530;-67
2023/01/20 08:13:27;;;;;;;51.75;22.83;;;0.20;99.90;;;;;;5011016;28;20046;-67
2023/01/20 08:15:52;;;;;;;50.97;21.85;;;0.20;99.90;;;;;;5012313;28;20561;-67
2023/01/20 08:18:18;;;;;;;55.45;21.65;;;0.20;99.90;;;;;;5012363;28;20046;-67
2023/01/20 08:20:44;;;;;;;48.15;22.20;;;0.30;99.90;;;;;;5007299;28;20042;-67
2023/01/20 08:23:10;;;;;;;50.72;22.40;;;0.30;99.90;;;;;;5007285;28;20030;-68
2023/01/20 08:25:35;;;;;;;49.55;21.67;;;0.30;99.90;;;;;;5008896;28;20072;-68
2023/01/20 08:28:01;;;;;;;50.03;22.65;;;0.30;99.90;;;;;;5011776;28;20045;-67
2023/01/20 08:30:26;;;;;;;52.90;22.70;;;0.30;99.90;;;;;;5012861;28;20040;-68
2023/01/20 08:32:52;;;;;;;48.67;22.40;;;0.30;99.90;;;;;;5002222;28;20426;-67
2023/01/20 08:35:18;;;;;;;45.13;21.40;;;0.30;99.90;;;;;;5011825;28;20046;-68
2023/01/20 08:37:44;;;;;;;44.67;19.58;;;0.30;99.90;;;;;;5003908;28;20098;-68
2023/01/20 08:40:10;;;;;;;48.13;21.60;;;0.30;99.90;;;;;;5010757;28;20145;-68
2023/01/20 08:42:37;;;;;;;46.53;22.00;;;0.30;99.90;;;;;;5006937;28;20459;-67
2023/01/20 08:45:05;;;;;;;47.30;23.42;;;0.40;99.90;;;;;;5007975;28;20041;-69
2023/01/20 08:47:34;;;;;;;48.80;22.38;;;0.40;99.90;;;;;;5010975;28;20049;-68
2023/01/20 08:49:59;;;;;;;46.08;22.17;;;0.40;99.90;;;;;;5012262;28;20052;-68
2023/01/20 08:52:25;;;;;;;46.47;22.05;;;0.40;99.90;;;;;;5009614;28;20041;-68
2023/01/20 08:54:54;;;;;;;47.53;22.50;;;0.50;99.90;;;;;;5010946;28;20491;-67
2023/01/20 08:57:20;;;;;;;49.38;23.38;;;0.50;99.90;;;;;;5008470;28;20068;-68
2023/01/20 08:59:46;;;;;;;50.85;23.23;;;0.50;99.90;;;;;;5010863;28;20050;-68
2023/01/20 09:02:12;;;;;;;45.50;21.75;;;0.50;99.90;;;;;;5011223;28;20491;-68
2023/01/20 09:04:38;;;;;;;50.92;23.25;;;0.50;99.90;;;;;;5011281;28;20044;-67
2023/01/20 09:07:04;;;;;;;56.17;24.42;;;0.60;99.90;;;;;;5009620;28;20064;-66
2023/01/20 09:09:30;;;;;;;52.65;25.05;;;0.60;99.90;;;;;;5008564;28;20093;-66
2023/01/20 09:11:56;;;;;;;49.47;23.95;;;0.60;99.90;;;;;;5011829;28;20041;-67
2023/01/20 09:14:23;;;;;;;50.38;23.88;;;0.60;99.90;;;;;;5010741;28;20041;-66
2023/01/20 09:16:50;;;;;;;48.35;23.50;;;0.60;99.90;;;;;;5010510;28;20057;-66
2023/01/20 09:19:16;;;;;;;49.30;23.77;;;0.60;99.90;;;;;;5010031;28;20092;-67
2023/01/20 09:21:42;;;;;;;54.50;25.25;;;0.70;99.90;;;;;;5009468;28;20129;-67
2023/01/20 09:24:08;;;;;;;48.30;24.20;;;0.70;99.90;;;;;;5006828;28;20037;-67
2023/01/20 09:26:40;;;;;;;53.17;25.65;;;0.80;99.90;;;;;;5009088;28;20421;-67
2023/01/20 09:29:17;;;;;;;53.00;25.05;;;0.70;99.90;;;;;;5010679;28;20124;-68
2023/01/20 09:31:48;;;;;;;54.17;24.58;;;0.80;99.90;;;;;;5009256;28;20450;-67
2023/01/20 09:34:17;;;;;;;50.78;24.35;;;0.80;99.90;;;;;;5011254;28;20069;-67
2023/01/20 09:36:44;;;;;;;51.03;23.65;;;0.80;99.90;;;;;;5009516;28;20045;-68
2023/01/20 09:44:57;;;;;;;50.83;24.10;;;0.80;99.90;;;;;;5010945;28;20125;-68
2023/01/20 09:47:26;;;;;;;47.70;23.10;;;0.90;99.90;;;;;;5011737;28;20049;-68
2023/01/20 09:54:02;;;;;;;54.35;23.45;;;0.90;99.90;;;;;;5006593;28;20140;-69
2023/01/20 09:56:35;;;;;;;59.88;24.48;;;0.90;99.90;;;;;;5016921;28;20045;-68
2023/01/20 09:59:09;;;;;;;52.58;24.55;;;0.90;99.90;;;;;;5007597;28;20065;-68
2023/01/20 10:01:51;;;;;;;53.08;23.88;;;0.90;99.90;;;;;;5015051;28;20125;-68
2023/01/20 10:04:40;;;;;;;58.63;26.17;;;0.90;99.90;;;;;;4998279;28;20395;-68
2023/01/20 10:07:18;;;;;;;54.00;24.98;;;0.90;99.90;;;;;;4999744;28;20042;-67
2023/01/20 10:09:49;;;;;;;49.70;24.00;;;0.90;99.90;;;;;;5006844;28;20640;-67
2023/01/20 10:12:31;;;;;;;49.38;22.83;;;1.00;99.90;;;;;;5008046;28;20061;-67
2023/01/20 10:15:04;;;;;;;54.85;24.38;;;1.00;99.90;;;;;;5000168;28;20049;-68
2023/01/20 10:17:35;;;;;;;47.55;22.80;;;1.10;99.90;;;;;;5009127;28;20057;-69
2023/01/20 10:20:04;;;;;;;52.45;25.05;;;1.00;99.90;;;;;;5011333;28;20407;-67
2023/01/20 10:22:38;;;;;;;55.10;24.90;;;1.00;99.90;;;;;;5012133;28;20099;-67
2023/01/20 10:25:30;;;;;;;54.05;22.35;;;1.00;99.90;;;;;;5014383;28;20399;-67
2023/01/20 10:28:01;;;;;;;53.58;24.80;;;1.00;99.90;;;;;;5009753;28;20056;-68
2023/01/20 10:30:31;;;;;;;57.92;24.85;;;1.00;99.90;;;;;;5010457;28;20038;-69
2023/01/20 10:33:09;;;;;;;54.78;24.17;;;1.00;99.90;;;;;;5012180;28;20046;-66
2023/01/20 10:35:48;;;;;;;50.05;23.33;;;1.00;99.90;;;;;;4999287;28;20116;-68
2023/01/20 10:38:42;;;;;;;57.38;25.00;;;1.10;99.90;;;;;;5011159;28;20060;-66
2023/01/20 10:41:14;;;;;;;53.28;24.25;;;1.00;99.90;;;;;;5011009;28;20049;-67
2023/01/20 10:43:40;;;;;;;52.60;24.00;;;1.10;99.90;;;;;;5013580;28;20107;-67
2023/01/20 10:46:52;;;;;;;50.17;22.83;;;1.10;99.90;;;;;;5011077;28;20491;-67
2023/01/20 10:49:24;;;;;;;57.10;24.13;;;1.10;99.90;;;;;;5011566;28;20050;-67
2023/01/20 10:52:08;;;;;;;50.53;23.17;;;1.10;99.90;;;;;;5012122;28;20057;-67
2023/01/20 10:54:44;;;;;;;54.67;24.70;;;1.10;99.90;;;;;;5012078;28;20045;-67
2023/01/20 10:57:14;;;;;;;51.65;22.25;;;1.10;99.90;;;;;;5007233;28;20037;-67
2023/01/20 10:59:50;;;;;;;55.75;23.77;;;1.10;99.90;;;;;;5009920;28;20053;-67
2023/01/20 11:02:18;;;;;;;57.45;25.00;;;1.10;99.90;;;;;;5012278;28;20038;-67
2023/01/20 11:04:47;;;;;;;52.72;24.08;;;1.10;99.90;;;;;;5013046;28;20075;-67
2023/01/20 11:07:16;;;;;;;56.60;23.27;;;1.10;99.90;;;;;;5011175;28;20055;-67
2023/01/20 11:09:42;;;;;;;55.03;23.65;;;1.20;99.90;;;;;;5008195;28;20057;-67
2023/01/20 11:12:18;;;;;;;52.60;22.60;;;1.20;99.90;;;;;;5012525;28;20049;-67
2023/01/20 11:14:45;;;;;;;55.42;23.80;;;1.20;99.90;;;;;;5014067;28;20491;-66
2023/01/20 11:17:17;;;;;;;52.97;23.90;;;1.20;99.90;;;;;;5012841;28;20042;-67
2023/01/20 11:19:49;;;;;;;52.35;24.13;;;1.20;99.90;;;;;;5013634;28;20137;-66
2023/01/20 11:22:21;;;;;;;55.67;24.23;;;1.20;99.90;;;;;;5012371;28;20390;-67
2023/01/20 11:24:52;;;;;;;51.28;23.90;;;1.20;99.90;;;;;;5009122;28;20112;-67
2023/01/20 11:27:21;;;;;;;58.67;23.95;;;1.20;99.90;;;;;;5010842;28;20049;-66
2023/01/20 11:29:56;;;;;;;53.20;24.10;;;1.20;99.90;;;;;;5013105;28;20050;-67
2023/01/20 11:32:28;;;;;;;55.88;24.30;;;1.20;99.90;;;;;;5007422;28;20045;-67
2023/01/20 11:34:54;;;;;;;50.33;22.02;;;1.20;99.90;;;;;;5010060;28;20065;-67
2023/01/20 11:37:25;;;;;;;47.40;22.25;;;1.20;99.90;;;;;;5013391;28;20037;-67
2023/01/20 11:40:14;;;;;;;53.20;22.65;;;1.20;99.90;;;;;;5009923;28;20499;-68
2023/01/20 11:42:42;;;;;;;49.92;23.25;;;1.20;99.90;;;;;;5009963;28;20065;-68
2023/01/20 11:45:31;;;;;;;54.67;24.67;;;1.20;99.90;;;;;;5013408;28;20054;-68
2023/01/20 11:48:13;;;;;;;47.85;23.25;;;1.20;99.90;;;;;;5014977;28;20046;-68
2023/01/20 11:50:44;;;;;;;45.80;20.58;;;1.10;99.90;;;;;;5011292;28;20045;-68
2023/01/20 11:53:18;;;;;;;50.05;21.73;;;1.20;99.90;;;;;;5010568;28;20081;-68
2023/01/20 11:55:50;;;;;;;50.47;21.42;;;1.20;99.90;;;;;;5026192;28;20046;-68
2023/01/20 11:58:27;;;;;;;47.10;20.75;;;1.20;99.90;;;;;;5013089;28;20447;-69
2023/01/20 12:01:19;;;;;;;47.70;22.05;;;1.10;99.90;;;;;;5005860;28;20052;-68
2023/01/20 12:04:14;;;;;;;50.53;21.20;;;1.10;99.90;;;;;;4999261;28;20045;-68
2023/01/20 12:06:50;;;;;;;51.47;22.73;;;1.20;99.90;;;;;;4999817;28;20058;-68
2023/01/20 12:09:21;;;;;;;48.45;22.27;;;1.20;99.90;;;;;;4999700;28;20061;-68
2023/01/20 12:11:53;;;;;;;52.75;21.60;;;1.20;99.90;;;;;;5002927;28;20391;-68
2023/01/20 12:14:24;;;;;;;46.65;20.65;;;1.20;99.90;;;;;;5011298;28;20045;-68
2023/01/20 12:16:54;;;;;;;47.67;21.95;;;1.20;99.90;;;;;;5008812;28;20053;-68
2023/01/20 12:19:26;;;;;;;54.53;23.58;;;1.20;99.90;;;;;;5029412;28;20045;-68
2023/01/20 12:21:55;;;;;;;57.95;23.40;;;1.20;99.90;;;;;;5011063;28;20046;-68
2023/01/20 12:25:06;;;;;;;57.50;23.02;;;1.20;99.90;;;;;;5009166;28;20049;-67
2023/01/20 12:27:26;;;;;;;52.08;22.63;;;1.20;99.90;;;;;;5004602;28;20054;-68
2023/01/20 12:29:57;;;;;;;51.58;23.08;;;1.20;99.90;;;;;;5005217;28;20451;-68
2023/01/20 12:32:23;;;;;;;52.53;23.48;;;1.20;99.90;;;;;;5010025;28;20434;-68
2023/01/20 12:34:49;;;;;;;49.97;22.67;;;1.20;99.90;;;;;;5010281;28;20042;-68
2023/01/20 12:37:27;;;;;;;58.85;24.38;;;1.20;99.90;;;;;;5003534;28;20121;-68
2023/01/20 12:40:06;;;;;;;52.67;23.20;;;1.20;99.90;;;;;;5000593;28;20551;-67
2023/01/20 12:42:37;;;;;;;;;;;1.20;99.90;;;;;;5006172;28;20053;-67
2023/01/20 12:45:22;;;;;;;57.25;23.02;;;1.20;99.90;;;;;;5009922;28;19972;-67
2023/01/20 12:48:11;;;;;;;48.55;21.77;;;1.20;99.90;;;;;;5008780;28;20077;-67
2023/01/20 12:50:43;;;;;;;46.92;21.40;;;1.10;99.90;;;;;;5006773;28;20116;-67
2023/01/20 12:53:17;;;;;;;52.75;22.38;;;1.10;99.90;;;;;;5007271;28;20046;-67
2023/01/20 12:56:10;;;;;;;44.88;20.92;;;1.10;99.90;;;;;;5009828;28;20372;-67
2023/01/20 12:58:51;;;;;;;47.75;20.58;;;1.10;99.90;;;;;;5008311;28;20487;-67
2023/01/20 13:02:14;;;;;;;46.00;21.60;;;1.10;99.90;;;;;;5007446;28;20099;-67